sensor_id;sensor_type;location;lat;lon;timestamp;pressure;altitude;pressure_sealevel;temperature;humidity
13800;BME280;6971;50.028;9.258;2022-08-19T00:03:23;99013.25;;;17.11;100.00
13800;BME280;6971;50.028;9.258;2022-08-19T00:08:24;99010.97;;;17.06;100.00
13800;BME280;6971;50.028;9.258;2022-08-19T00:13:25;99015.19;;;17.09;100.00
13800;BME280;6971;50.028;9.258;2022-08-19T00:18:25;98998.94;;;17.12;100.00
13800;BME280;6971;50.028;9.258;2022-08-19T00:23:27;98992.22;;;17.18;100.00
13800;BME280;6971;50.028;9.258;2022-08-19T00:28:28;98990.09;;;17.12;100.00
13800;BME280;6971;50.028;9.258;2022-08-19T00:33:48;98983.53;;;17.16;100.00
13800;BME280;6971;50.028;9.258;2022-08-19T00:38:50;98976.41;;;17.16;100.00
13800;BME280;6971;50.028;9.258;2022-08-19T00:49:07;98966.56;;;17.07;100.00
13800;BME280;6971;50.028;9.258;2022-08-19T00:54:10;98961.38;;;17.05;100.00
13800;BME280;6971;50.028;9.258;2022-08-19T00:59:12;98942.00;;;17.03;100.00
13800;BME280;6971;50.028;9.258;2022-08-19T01:04:28;98948.84;;;16.96;100.00
13800;BME280;6971;50.028;9.258;2022-08-19T01:09:29;98959.94;;;17.01;100.00
13800;BME280;6971;50.028;9.258;2022-08-19T01:14:32;98969.47;;;17.04;100.00
13800;BME280;6971;50.028;9.258;2022-08-19T01:19:38;98960.19;;;16.98;100.00
13800;BME280;6971;50.028;9.258;2022-08-19T01:24:40;98961.94;;;17.09;100.00
13800;BME280;6971;50.028;9.258;2022-08-19T01:29:58;98953.94;;;17.09;100.00
13800;BME280;6971;50.028;9.258;2022-08-19T01:35:00;98949.88;;;17.05;100.00
13800;BME280;6971;50.028;9.258;2022-08-19T01:40:03;98941.44;;;17.00;100.00
13800;BME280;6971;50.028;9.258;2022-08-19T01:45:05;98953.59;;;16.92;100.00
13800;BME280;6971;50.028;9.258;2022-08-19T01:50:08;98960.91;;;16.59;100.00
13800;BME280;6971;50.028;9.258;2022-08-19T01:55:14;98969.38;;;16.74;100.00
13800;BME280;6971;50.028;9.258;2022-08-19T02:00:18;98976.25;;;16.77;100.00
13800;BME280;6971;50.028;9.258;2022-08-19T02:05:20;98979.41;;;16.61;100.00
13800;BME280;6971;50.028;9.258;2022-08-19T02:10:22;98985.03;;;16.67;100.00
13800;BME280;6971;50.028;9.258;2022-08-19T02:15:23;98997.47;;;16.67;100.00
13800;BME280;6971;50.028;9.258;2022-08-19T02:20:26;98990.66;;;16.74;100.00
13800;BME280;6971;50.028;9.258;2022-08-19T02:25:27;98990.53;;;16.76;100.00
13800;BME280;6971;50.028;9.258;2022-08-19T02:30:30;98986.13;;;16.65;100.00
13800;BME280;6971;50.028;9.258;2022-08-19T02:35:32;98983.59;;;16.63;100.00
13800;BME280;6971;50.028;9.258;2022-08-19T02:40:34;98985.59;;;16.71;100.00
13800;BME280;6971;50.028;9.258;2022-08-19T02:45:54;98984.53;;;16.83;100.00
13800;BME280;6971;50.028;9.258;2022-08-19T02:50:55;98988.88;;;16.84;100.00
13800;BME280;6971;50.028;9.258;2022-08-19T02:55:57;98981.59;;;16.87;100.00
13800;BME280;6971;50.028;9.258;2022-08-19T03:00:58;98987.44;;;16.80;100.00
13800;BME280;6971;50.028;9.258;2022-08-19T03:06:12;98988.88;;;16.84;100.00
13800;BME280;6971;50.028;9.258;2022-08-19T03:11:23;99004.31;;;16.91;100.00
13800;BME280;6971;50.028;9.258;2022-08-19T03:16:27;99000.41;;;16.95;100.00
13800;BME280;6971;50.028;9.258;2022-08-19T03:21:31;99000.84;;;17.00;100.00
13800;BME280;6971;50.028;9.258;2022-08-19T03:26:33;99003.50;;;17.00;100.00
13800;BME280;6971;50.028;9.258;2022-08-19T03:31:35;99005.44;;;16.98;100.00
13800;BME280;6971;50.028;9.258;2022-08-19T03:36:36;99000.84;;;17.00;100.00
13800;BME280;6971;50.028;9.258;2022-08-19T03:41:54;99002.09;;;16.96;100.00
13800;BME280;6971;50.028;9.258;2022-08-19T03:46:59;99004.94;;;17.04;100.00
13800;BME280;6971;50.028;9.258;2022-08-19T03:52:01;98995.53;;;17.00;100.00
13800;BME280;6971;50.028;9.258;2022-08-19T03:57:03;99002.22;;;16.94;100.00
13800;BME280;6971;50.028;9.258;2022-08-19T04:02:08;98999.00;;;17.01;100.00
13800;BME280;6971;50.028;9.258;2022-08-19T04:07:12;98998.69;;;16.94;100.00
13800;BME280;6971;50.028;9.258;2022-08-19T04:12:17;99001.09;;;16.97;100.00
13800;BME280;6971;50.028;9.258;2022-08-19T04:17:18;98996.03;;;16.94;100.00
13800;BME280;6971;50.028;9.258;2022-08-19T04:22:19;99013.13;;;16.91;100.00
13800;BME280;6971;50.028;9.258;2022-08-19T04:27:20;99009.16;;;16.86;100.00
13800;BME280;6971;50.028;9.258;2022-08-19T04:32:21;98995.78;;;16.97;100.00
13800;BME280;6971;50.028;9.258;2022-08-19T04:37:23;99003.97;;;17.05;100.00
13800;BME280;6971;50.028;9.258;2022-08-19T04:42:26;98996.66;;;17.07;100.00
13800;BME280;6971;50.028;9.258;2022-08-19T04:47:42;99000.19;;;17.08;100.00
13800;BME280;6971;50.028;9.258;2022-08-19T04:52:44;99008.59;;;17.13;100.00
13800;BME280;6971;50.028;9.258;2022-08-19T04:57:46;99017.16;;;17.17;100.00
13800;BME280;6971;50.028;9.258;2022-08-19T05:02:48;99034.25;;;17.14;100.00
13800;BME280;6971;50.028;9.258;2022-08-19T05:07:50;99033.34;;;17.04;100.00
13800;BME280;6971;50.028;9.258;2022-08-19T05:12:51;99030.75;;;17.14;100.00
13800;BME280;6971;50.028;9.258;2022-08-19T05:17:52;99033.44;;;17.23;100.00
13800;BME280;6971;50.028;9.258;2022-08-19T05:23:12;99030.06;;;17.21;100.00
13800;BME280;6971;50.028;9.258;2022-08-19T05:28:26;99038.19;;;17.20;100.00
13800;BME280;6971;50.028;9.258;2022-08-19T05:33:29;99046.66;;;17.35;100.00
13800;BME280;6971;50.028;9.258;2022-08-19T05:38:30;99049.22;;;17.46;100.00
13800;BME280;6971;50.028;9.258;2022-08-19T05:43:31;99049.22;;;17.46;100.00
13800;BME280;6971;50.028;9.258;2022-08-19T05:48:35;99052.16;;;17.53;100.00
13800;BME280;6971;50.028;9.258;2022-08-19T05:53:37;99053.16;;;17.62;100.00
13800;BME280;6971;50.028;9.258;2022-08-19T05:58:38;99055.41;;;17.67;100.00
13800;BME280;6971;50.028;9.258;2022-08-19T06:03:39;99067.72;;;17.58;100.00
13800;BME280;6971;50.028;9.258;2022-08-19T06:08:41;99084.88;;;17.75;100.00
13800;BME280;6971;50.028;9.258;2022-08-19T06:13:44;99090.34;;;17.93;100.00
13800;BME280;6971;50.028;9.258;2022-08-19T06:18:52;99095.97;;;18.00;100.00
13800;BME280;6971;50.028;9.258;2022-08-19T06:23:56;99097.53;;;17.93;100.00
13800;BME280;6971;50.028;9.258;2022-08-19T06:28:58;99095.00;;;17.91;100.00
13800;BME280;6971;50.028;9.258;2022-08-19T06:34:02;99105.38;;;18.04;100.00
13800;BME280;6971;50.028;9.258;2022-08-19T06:39:05;99107.66;;;18.19;100.00
13800;BME280;6971;50.028;9.258;2022-08-19T06:44:08;99114.09;;;18.16;100.00
13800;BME280;6971;50.028;9.258;2022-08-19T06:49:09;99117.06;;;18.23;100.00
13800;BME280;6971;50.028;9.258;2022-08-19T06:54:18;99119.03;;;18.40;100.00
13800;BME280;6971;50.028;9.258;2022-08-19T06:59:22;99133.91;;;18.53;100.00
13800;BME280;6971;50.028;9.258;2022-08-19T07:04:28;99130.09;;;18.65;100.00
13800;BME280;6971;50.028;9.258;2022-08-19T07:09:29;99143.53;;;18.94;100.00
13800;BME280;6971;50.028;9.258;2022-08-19T07:14:31;99147.63;;;18.88;100.00
13800;BME280;6971;50.028;9.258;2022-08-19T07:19:33;99141.84;;;19.12;100.00
13800;BME280;6971;50.028;9.258;2022-08-19T07:24:36;99148.97;;;19.22;100.00
13800;BME280;6971;50.028;9.258;2022-08-19T07:29:37;99147.50;;;19.37;100.00
13800;BME280;6971;50.028;9.258;2022-08-19T07:34:41;99161.66;;;18.90;100.00
13800;BME280;6971;50.028;9.258;2022-08-19T07:39:42;99147.19;;;18.92;100.00
13800;BME280;6971;50.028;9.258;2022-08-19T07:44:43;99153.34;;;19.13;100.00
13800;BME280;6971;50.028;9.258;2022-08-19T07:49:44;99146.84;;;19.25;100.00
13800;BME280;6971;50.028;9.258;2022-08-19T07:54:45;99161.41;;;19.41;100.00
13800;BME280;6971;50.028;9.258;2022-08-19T07:59:46;99170.63;;;19.56;100.00
13800;BME280;6971;50.028;9.258;2022-08-19T08:04:47;99165.97;;;19.87;100.00
13800;BME280;6971;50.028;9.258;2022-08-19T08:10:07;99151.09;;;19.84;100.00
13800;BME280;6971;50.028;9.258;2022-08-19T08:15:13;99162.16;;;19.89;100.00
13800;BME280;6971;50.028;9.258;2022-08-19T08:20:19;99167.72;;;20.06;100.00
13800;BME280;6971;50.028;9.258;2022-08-19T08:25:31;99152.28;;;20.36;99.62
13800;BME280;6971;50.028;9.258;2022-08-19T08:30:32;99150.47;;;20.55;97.66
13800;BME280;6971;50.028;9.258;2022-08-19T08:35:34;99154.00;;;20.37;96.70
13800;BME280;6971;50.028;9.258;2022-08-19T08:40:45;99159.34;;;20.37;96.01
13800;BME280;6971;50.028;9.258;2022-08-19T08:45:54;99152.38;;;20.26;94.72
13800;BME280;6971;50.028;9.258;2022-08-19T08:50:57;99158.56;;;20.45;94.53
13800;BME280;6971;50.028;9.258;2022-08-19T08:56:02;99155.09;;;20.53;93.61
13800;BME280;6971;50.028;9.258;2022-08-19T09:01:04;99162.28;;;20.70;92.56
13800;BME280;6971;50.028;9.258;2022-08-19T09:06:14;99166.56;;;20.99;92.24
13800;BME280;6971;50.028;9.258;2022-08-19T09:16:39;99163.38;;;21.31;89.61
13800;BME280;6971;50.028;9.258;2022-08-19T09:21:42;99167.72;;;20.97;86.33
13800;BME280;6971;50.028;9.258;2022-08-19T09:26:43;99168.75;;;21.31;84.04
13800;BME280;6971;50.028;9.258;2022-08-19T09:31:45;99165.00;;;21.58;81.86
13800;BME280;6971;50.028;9.258;2022-08-19T09:36:46;99176.00;;;21.73;82.07
13800;BME280;6971;50.028;9.258;2022-08-19T09:41:47;99172.13;;;21.76;81.13
13800;BME280;6971;50.028;9.258;2022-08-19T09:46:51;99175.88;;;21.91;78.63
13800;BME280;6971;50.028;9.258;2022-08-19T09:51:52;99176.13;;;22.32;73.91
13800;BME280;6971;50.028;9.258;2022-08-19T09:56:58;99173.09;;;22.26;73.47
13800;BME280;6971;50.028;9.258;2022-08-19T10:02:03;99173.28;;;22.41;70.81
13800;BME280;6971;50.028;9.258;2022-08-19T10:07:04;99170.16;;;22.79;68.80
13800;BME280;6971;50.028;9.258;2022-08-19T10:12:07;99174.84;;;22.86;67.95
13800;BME280;6971;50.028;9.258;2022-08-19T10:17:08;99168.56;;;23.35;67.01
13800;BME280;6971;50.028;9.258;2022-08-19T10:22:09;99164.06;;;23.02;67.71
13800;BME280;6971;50.028;9.258;2022-08-19T10:27:15;99166.41;;;23.14;67.82
13800;BME280;6971;50.028;9.258;2022-08-19T10:32:16;99158.47;;;23.45;66.12
13800;BME280;6971;50.028;9.258;2022-08-19T10:37:18;99152.75;;;23.80;65.46
13800;BME280;6971;50.028;9.258;2022-08-19T10:42:19;99141.00;;;24.36;62.79
13800;BME280;6971;50.028;9.258;2022-08-19T10:47:20;99121.66;;;25.10;60.77
13800;BME280;6971;50.028;9.258;2022-08-19T10:52:23;99114.47;;;25.99;58.56
13800;BME280;6971;50.028;9.258;2022-08-19T10:57:37;99121.38;;;25.05;59.30
13800;BME280;6971;50.028;9.258;2022-08-19T11:02:38;99124.06;;;25.05;56.67
13800;BME280;6971;50.028;9.258;2022-08-19T11:07:41;99125.63;;;24.84;59.99
13800;BME280;6971;50.028;9.258;2022-08-19T11:12:42;99129.47;;;24.89;58.00
13800;BME280;6971;50.028;9.258;2022-08-19T11:17:44;99121.38;;;24.89;54.43
13800;BME280;6971;50.028;9.258;2022-08-19T11:22:47;99121.28;;;24.98;52.48
13800;BME280;6971;50.028;9.258;2022-08-19T11:27:49;99112.84;;;24.77;53.70
13800;BME280;6971;50.028;9.258;2022-08-19T11:32:53;99103.00;;;24.70;53.61
13800;BME280;6971;50.028;9.258;2022-08-19T11:37:53;99104.59;;;24.79;53.49
13800;BME280;6971;50.028;9.258;2022-08-19T11:42:55;99106.03;;;25.35;52.17
13800;BME280;6971;50.028;9.258;2022-08-19T11:47:56;99091.25;;;24.86;52.99
13800;BME280;6971;50.028;9.258;2022-08-19T11:52:57;99078.28;;;25.72;49.77
13800;BME280;6971;50.028;9.258;2022-08-19T11:57:58;99083.22;;;26.55;48.11
13800;BME280;6971;50.028;9.258;2022-08-19T12:02:59;99077.78;;;26.05;50.67
13800;BME280;6971;50.028;9.258;2022-08-19T12:08:00;99072.78;;;26.02;49.78
13800;BME280;6971;50.028;9.258;2022-08-19T12:13:01;99073.25;;;26.56;48.02
13800;BME280;6971;50.028;9.258;2022-08-19T12:18:02;99050.78;;;27.82;43.84
13800;BME280;6971;50.028;9.258;2022-08-19T12:23:17;99048.56;;;28.46;41.71
13800;BME280;6971;50.028;9.258;2022-08-19T12:28:23;99055.41;;;27.26;45.01
13800;BME280;6971;50.028;9.258;2022-08-19T12:33:24;99047.09;;;28.10;43.78
13800;BME280;6971;50.028;9.258;2022-08-19T12:38:28;99043.22;;;27.50;44.75
13800;BME280;6971;50.028;9.258;2022-08-19T12:43:29;99046.88;;;27.84;43.56
13800;BME280;6971;50.028;9.258;2022-08-19T12:48:46;99044.00;;;28.33;42.10
13800;BME280;6971;50.028;9.258;2022-08-19T12:53:48;99041.13;;;27.52;45.31
13800;BME280;6971;50.028;9.258;2022-08-19T12:58:50;99057.81;;;27.07;45.87
13800;BME280;6971;50.028;9.258;2022-08-19T13:03:51;99061.63;;;26.91;45.12
13800;BME280;6971;50.028;9.258;2022-08-19T13:08:54;99056.00;;;26.57;46.33
13800;BME280;6971;50.028;9.258;2022-08-19T13:14:14;99058.50;;;26.58;46.54
13800;BME280;6971;50.028;9.258;2022-08-19T13:19:15;99071.03;;;26.38;47.59
13800;BME280;6971;50.028;9.258;2022-08-19T13:24:17;99076.38;;;26.31;46.84
13800;BME280;6971;50.028;9.258;2022-08-19T13:29:18;99077.53;;;25.78;48.95
13800;BME280;6971;50.028;9.258;2022-08-19T13:34:38;99079.69;;;25.67;49.02
13800;BME280;6971;50.028;9.258;2022-08-19T13:39:40;99097.25;;;25.48;49.46
13800;BME280;6971;50.028;9.258;2022-08-19T13:44:41;99099.16;;;25.33;49.87
13800;BME280;6971;50.028;9.258;2022-08-19T13:49:42;99091.72;;;25.20;50.73
13800;BME280;6971;50.028;9.258;2022-08-19T13:54:43;99084.00;;;25.32;50.89
13800;BME280;6971;50.028;9.258;2022-08-19T13:59:44;99077.28;;;25.58;50.84
13800;BME280;6971;50.028;9.258;2022-08-19T14:04:45;99068.47;;;25.86;49.46
13800;BME280;6971;50.028;9.258;2022-08-19T14:09:47;99068.41;;;26.23;49.52
13800;BME280;6971;50.028;9.258;2022-08-19T14:14:48;99057.69;;;26.29;48.85
13800;BME280;6971;50.028;9.258;2022-08-19T14:19:57;99060.13;;;26.53;47.61
13800;BME280;6971;50.028;9.258;2022-08-19T14:25:00;99054.69;;;26.46;48.34
13800;BME280;6971;50.028;9.258;2022-08-19T14:30:03;99050.97;;;26.47;47.90
13800;BME280;6971;50.028;9.258;2022-08-19T14:35:22;99038.44;;;26.39;47.50
13800;BME280;6971;50.028;9.258;2022-08-19T14:40:25;99034.50;;;27.06;45.16
13800;BME280;6971;50.028;9.258;2022-08-19T14:45:28;99037.31;;;27.33;44.66
13800;BME280;6971;50.028;9.258;2022-08-19T14:50:30;99026.91;;;27.30;44.02
13800;BME280;6971;50.028;9.258;2022-08-19T14:55:32;99022.78;;;27.34;44.48
13800;BME280;6971;50.028;9.258;2022-08-19T15:00:33;99027.16;;;27.42;44.60
13800;BME280;6971;50.028;9.258;2022-08-19T15:05:34;99024.88;;;26.96;44.32
13800;BME280;6971;50.028;9.258;2022-08-19T15:10:38;99026.78;;;26.67;46.05
13800;BME280;6971;50.028;9.258;2022-08-19T15:15:39;99036.94;;;26.65;45.70
13800;BME280;6971;50.028;9.258;2022-08-19T15:20:40;99031.91;;;26.27;46.00
13800;BME280;6971;50.028;9.258;2022-08-19T15:25:45;99021.94;;;26.05;45.83
13800;BME280;6971;50.028;9.258;2022-08-19T15:30:47;99033.25;;;25.94;46.99
13800;BME280;6971;50.028;9.258;2022-08-19T15:35:49;99038.06;;;25.77;45.42
13800;BME280;6971;50.028;9.258;2022-08-19T15:40:52;99032.78;;;25.68;46.04
13800;BME280;6971;50.028;9.258;2022-08-19T15:45:54;99031.72;;;25.63;47.58
13800;BME280;6971;50.028;9.258;2022-08-19T15:50:54;99036.25;;;25.47;50.91
13800;BME280;6971;50.028;9.258;2022-08-19T15:55:55;99039.41;;;25.14;50.07
13800;BME280;6971;50.028;9.258;2022-08-19T16:01:02;99043.19;;;25.20;52.46
13800;BME280;6971;50.028;9.258;2022-08-19T16:06:22;99042.13;;;24.99;53.64
13800;BME280;6971;50.028;9.258;2022-08-19T16:11:29;99042.25;;;24.67;54.81
13800;BME280;6971;50.028;9.258;2022-08-19T16:16:33;99048.31;;;24.69;53.91
13800;BME280;6971;50.028;9.258;2022-08-19T16:21:35;99054.50;;;24.70;49.50
13800;BME280;6971;50.028;9.258;2022-08-19T16:26:38;99047.66;;;24.82;49.04
13800;BME280;6971;50.028;9.258;2022-08-19T16:31:41;99066.59;;;24.74;51.03
13800;BME280;6971;50.028;9.258;2022-08-19T16:36:42;99057.03;;;24.33;58.32
13800;BME280;6971;50.028;9.258;2022-08-19T16:41:44;99065.13;;;24.33;57.69
13800;BME280;6971;50.028;9.258;2022-08-19T16:46:46;99068.44;;;24.20;57.26
13800;BME280;6971;50.028;9.258;2022-08-19T16:51:47;99071.09;;;23.96;59.84
13800;BME280;6971;50.028;9.258;2022-08-19T16:56:50;99078.72;;;23.93;60.81
13800;BME280;6971;50.028;9.258;2022-08-19T17:01:51;99078.16;;;23.74;61.46
13800;BME280;6971;50.028;9.258;2022-08-19T17:06:52;99080.47;;;23.54;63.13
13800;BME280;6971;50.028;9.258;2022-08-19T17:11:53;99079.00;;;23.43;64.37
13800;BME280;6971;50.028;9.258;2022-08-19T17:16:54;99078.31;;;23.32;67.18
13800;BME280;6971;50.028;9.258;2022-08-19T17:21:55;99075.53;;;23.17;69.33
13800;BME280;6971;50.028;9.258;2022-08-19T17:26:57;99078.97;;;22.86;70.76
13800;BME280;6971;50.028;9.258;2022-08-19T17:31:58;99081.19;;;22.74;71.53
13800;BME280;6971;50.028;9.258;2022-08-19T17:36:59;99085.06;;;22.55;74.07
13800;BME280;6971;50.028;9.258;2022-08-19T17:42:00;99085.56;;;22.50;76.46
13800;BME280;6971;50.028;9.258;2022-08-19T17:47:01;99086.91;;;22.29;77.66
13800;BME280;6971;50.028;9.258;2022-08-19T17:52:03;99079.53;;;22.15;79.71
13800;BME280;6971;50.028;9.258;2022-08-19T17:57:04;99088.91;;;22.11;81.56
13800;BME280;6971;50.028;9.258;2022-08-19T18:02:08;99085.72;;;21.90;80.76
13800;BME280;6971;50.028;9.258;2022-08-19T18:07:09;99089.56;;;21.88;79.20
13800;BME280;6971;50.028;9.258;2022-08-19T18:12:11;99090.56;;;21.78;81.34
13800;BME280;6971;50.028;9.258;2022-08-19T18:17:18;99101.59;;;21.75;85.78
13800;BME280;6971;50.028;9.258;2022-08-19T18:22:32;99104.53;;;21.64;85.52
13800;BME280;6971;50.028;9.258;2022-08-19T18:27:36;99101.47;;;21.50;85.67
13800;BME280;6971;50.028;9.258;2022-08-19T18:32:37;99106.81;;;21.42;86.14
13800;BME280;6971;50.028;9.258;2022-08-19T18:37:40;99106.41;;;21.29;87.04
13800;BME280;6971;50.028;9.258;2022-08-19T18:42:43;99118.59;;;21.15;88.33
13800;BME280;6971;50.028;9.258;2022-08-19T18:48:03;99117.28;;;20.92;90.56
13800;BME280;6971;50.028;9.258;2022-08-19T18:53:25;99122.44;;;20.67;91.60
13800;BME280;6971;50.028;9.258;2022-08-19T18:58:28;99127.59;;;20.42;93.65
13800;BME280;6971;50.028;9.258;2022-08-19T19:03:33;99136.09;;;20.19;95.74
13800;BME280;6971;50.028;9.258;2022-08-19T19:08:35;99134.91;;;19.86;97.68
13800;BME280;6971;50.028;9.258;2022-08-19T19:13:39;99146.53;;;19.66;99.49
13800;BME280;6971;50.028;9.258;2022-08-19T19:18:40;99156.28;;;19.57;100.00
13800;BME280;6971;50.028;9.258;2022-08-19T19:23:42;99164.78;;;19.43;100.00
13800;BME280;6971;50.028;9.258;2022-08-19T19:28:43;99172.44;;;19.28;100.00
13800;BME280;6971;50.028;9.258;2022-08-19T19:33:47;99180.78;;;19.15;100.00
13800;BME280;6971;50.028;9.258;2022-08-19T19:38:49;99186.81;;;19.07;100.00
13800;BME280;6971;50.028;9.258;2022-08-19T19:43:52;99183.44;;;18.85;100.00
13800;BME280;6971;50.028;9.258;2022-08-19T19:48:54;99180.09;;;18.83;100.00
13800;BME280;6971;50.028;9.258;2022-08-19T19:53:56;99195.84;;;18.86;100.00
13800;BME280;6971;50.028;9.258;2022-08-19T19:58:57;99205.53;;;18.87;100.00
13800;BME280;6971;50.028;9.258;2022-08-19T20:04:06;99201.31;;;18.75;100.00
13800;BME280;6971;50.028;9.258;2022-08-19T20:09:08;99207.78;;;18.72;100.00
13800;BME280;6971;50.028;9.258;2022-08-19T20:14:24;99214.06;;;18.81;100.00
13800;BME280;6971;50.028;9.258;2022-08-19T20:19:28;99216.19;;;18.77;100.00
13800;BME280;6971;50.028;9.258;2022-08-19T20:24:34;99223.22;;;18.78;100.00
13800;BME280;6971;50.028;9.258;2022-08-19T20:29:35;99240.75;;;18.81;95.95
13800;BME280;6971;50.028;9.258;2022-08-19T20:34:37;99236.44;;;18.90;100.00
13800;BME280;6971;50.028;9.258;2022-08-19T20:39:39;99241.91;;;18.88;100.00
13800;BME280;6971;50.028;9.258;2022-08-19T20:44:39;99237.41;;;18.79;100.00
13800;BME280;6971;50.028;9.258;2022-08-19T20:49:40;99249.91;;;18.88;100.00
13800;BME280;6971;50.028;9.258;2022-08-19T20:54:41;99254.56;;;18.86;100.00
13800;BME280;6971;50.028;9.258;2022-08-19T20:59:43;99254.25;;;18.89;100.00
13800;BME280;6971;50.028;9.258;2022-08-19T21:04:44;99246.97;;;18.91;100.00
13800;BME280;6971;50.028;9.258;2022-08-19T21:09:46;99250.63;;;18.81;100.00
13800;BME280;6971;50.028;9.258;2022-08-19T21:14:47;99254.81;;;18.73;100.00
13800;BME280;6971;50.028;9.258;2022-08-19T21:19:49;99250.75;;;18.69;100.00
13800;BME280;6971;50.028;9.258;2022-08-19T21:24:50;99255.94;;;18.51;100.00
13800;BME280;6971;50.028;9.258;2022-08-19T21:29:51;99259.03;;;18.56;100.00
13800;BME280;6971;50.028;9.258;2022-08-19T21:34:54;99247.94;;;18.51;100.00
13800;BME280;6971;50.028;9.258;2022-08-19T21:39:56;99251.16;;;18.45;100.00
13800;BME280;6971;50.028;9.258;2022-08-19T21:44:57;99254.81;;;18.44;100.00
13800;BME280;6971;50.028;9.258;2022-08-19T21:49:59;99256.75;;;18.32;100.00
13800;BME280;6971;50.028;9.258;2022-08-19T21:55:01;99254.78;;;18.24;100.00
13800;BME280;6971;50.028;9.258;2022-08-19T22:00:06;99248.03;;;18.20;100.00
13800;BME280;6971;50.028;9.258;2022-08-19T22:05:10;99246.38;;;17.97;100.00
13800;BME280;6971;50.028;9.258;2022-08-19T22:10:29;99245.09;;;17.92;100.00
13800;BME280;6971;50.028;9.258;2022-08-19T22:15:30;99242.81;;;17.77;100.00
13800;BME280;6971;50.028;9.258;2022-08-19T22:20:32;99247.03;;;17.48;100.00
13800;BME280;6971;50.028;9.258;2022-08-19T22:25:40;99249.03;;;17.35;100.00
13800;BME280;6971;50.028;9.258;2022-08-19T22:30:43;99242.34;;;17.41;100.00
13800;BME280;6971;50.028;9.258;2022-08-19T22:35:45;99253.53;;;17.34;100.00
13800;BME280;6971;50.028;9.258;2022-08-19T22:40:48;99246.06;;;17.28;100.00
13800;BME280;6971;50.028;9.258;2022-08-19T22:45:52;99249.19;;;17.12;100.00
13800;BME280;6971;50.028;9.258;2022-08-19T22:50:54;99255.50;;;17.00;100.00
13800;BME280;6971;50.028;9.258;2022-08-19T22:56:16;99264.25;;;16.90;100.00
13800;BME280;6971;50.028;9.258;2022-08-19T23:01:20;99267.31;;;16.86;100.00
13800;BME280;6971;50.028;9.258;2022-08-19T23:06:33;99264.69;;;16.74;100.00
13800;BME280;6971;50.028;9.258;2022-08-19T23:11:36;99267.50;;;16.61;100.00
13800;BME280;6971;50.028;9.258;2022-08-19T23:16:38;99272.38;;;16.56;100.00
13800;BME280;6971;50.028;9.258;2022-08-19T23:21:40;99264.56;;;16.31;100.00
13800;BME280;6971;50.028;9.258;2022-08-19T23:26:41;99268.72;;;16.24;100.00
13800;BME280;6971;50.028;9.258;2022-08-19T23:32:02;99261.84;;;16.10;100.00
13800;BME280;6971;50.028;9.258;2022-08-19T23:37:06;99276.09;;;15.98;100.00
13800;BME280;6971;50.028;9.258;2022-08-19T23:42:08;99274.53;;;15.95;100.00
13800;BME280;6971;50.028;9.258;2022-08-19T23:47:11;99267.84;;;15.89;100.00
13800;BME280;6971;50.028;9.258;2022-08-19T23:52:11;99269.41;;;15.69;100.00
13800;BME280;6971;50.028;9.258;2022-08-19T23:57:12;99274.03;;;15.67;100.00
